sensor_id;sensor_type;location;lat;lon;timestamp;pressure;altitude;pressure_sealevel;temperature;humidity
51460;BME280;37534;39.772;2.718;2023-05-27T00:01:57;101564.59;;;16.83;100.00
51460;BME280;37534;39.772;2.718;2023-05-27T00:04:23;101571.38;;;16.87;100.00
51460;BME280;37534;39.772;2.718;2023-05-27T00:06:49;101570.13;;;16.98;100.00
51460;BME280;37534;39.772;2.718;2023-05-27T00:09:14;101572.78;;;16.96;100.00
51460;BME280;37534;39.772;2.718;2023-05-27T00:11:40;101567.19;;;16.83;100.00
51460;BME280;37534;39.772;2.718;2023-05-27T00:14:05;101564.47;;;16.63;100.00
51460;BME280;37534;39.772;2.718;2023-05-27T00:16:31;101568.63;;;16.68;100.00
51460;BME280;37534;39.772;2.718;2023-05-27T00:19:01;101561.81;;;16.64;100.00
51460;BME280;37534;39.772;2.718;2023-05-27T00:21:26;101554.56;;;16.72;100.00
51460;BME280;37534;39.772;2.718;2023-05-27T00:23:52;101557.09;;;16.74;100.00
51460;BME280;37534;39.772;2.718;2023-05-27T00:26:17;101562.22;;;16.77;100.00
51460;BME280;37534;39.772;2.718;2023-05-27T00:28:43;101548.72;;;16.66;100.00
51460;BME280;37534;39.772;2.718;2023-05-27T00:31:08;101549.59;;;16.66;100.00
51460;BME280;37534;39.772;2.718;2023-05-27T00:33:34;101548.66;;;16.67;100.00
51460;BME280;37534;39.772;2.718;2023-05-27T00:35:59;101542.03;;;16.59;100.00
51460;BME280;37534;39.772;2.718;2023-05-27T00:38:25;101539.53;;;16.56;100.00
51460;BME280;37534;39.772;2.718;2023-05-27T00:40:53;101540.56;;;16.51;100.00
51460;BME280;37534;39.772;2.718;2023-05-27T00:43:19;101521.81;;;16.43;100.00
51460;BME280;37534;39.772;2.718;2023-05-27T00:45:44;101527.59;;;16.50;100.00
51460;BME280;37534;39.772;2.718;2023-05-27T00:48:10;101531.19;;;16.47;100.00
51460;BME280;37534;39.772;2.718;2023-05-27T00:50:35;101530.94;;;16.53;100.00
51460;BME280;37534;39.772;2.718;2023-05-27T00:53:02;101529.44;;;16.48;100.00
51460;BME280;37534;39.772;2.718;2023-05-27T00:55:28;101524.41;;;16.43;100.00
51460;BME280;37534;39.772;2.718;2023-05-27T00:57:53;101537.28;;;16.46;100.00
51460;BME280;37534;39.772;2.718;2023-05-27T01:00:20;101541.72;;;16.44;100.00
51460;BME280;37534;39.772;2.718;2023-05-27T01:02:46;101530.72;;;16.36;100.00
51460;BME280;37534;39.772;2.718;2023-05-27T01:05:13;101533.50;;;16.55;100.00
51460;BME280;37534;39.772;2.718;2023-05-27T01:07:50;101542.16;;;16.56;100.00
51460;BME280;37534;39.772;2.718;2023-05-27T01:10:31;101539.22;;;16.41;100.00
51460;BME280;37534;39.772;2.718;2023-05-27T01:13:26;101530.63;;;16.39;100.00
51460;BME280;37534;39.772;2.718;2023-05-27T01:15:54;101534.00;;;16.41;100.00
51460;BME280;37534;39.772;2.718;2023-05-27T01:18:22;101543.75;;;16.36;100.00
51460;BME280;37534;39.772;2.718;2023-05-27T01:20:51;101535.53;;;16.23;100.00
51460;BME280;37534;39.772;2.718;2023-05-27T01:23:17;101537.66;;;16.13;100.00
51460;BME280;37534;39.772;2.718;2023-05-27T01:25:42;101524.28;;;15.99;100.00
51460;BME280;37534;39.772;2.718;2023-05-27T01:28:08;101523.03;;;16.09;100.00
51460;BME280;37534;39.772;2.718;2023-05-27T01:30:34;101537.66;;;16.13;100.00
51460;BME280;37534;39.772;2.718;2023-05-27T01:33:13;101518.50;;;15.91;100.00
51460;BME280;37534;39.772;2.718;2023-05-27T01:35:44;101528.78;;;15.94;100.00
51460;BME280;37534;39.772;2.718;2023-05-27T01:38:18;101523.09;;;15.83;100.00
51460;BME280;37534;39.772;2.718;2023-05-27T01:40:47;101522.31;;;15.81;100.00
51460;BME280;37534;39.772;2.718;2023-05-27T01:43:14;101511.84;;;15.82;100.00
51460;BME280;37534;39.772;2.718;2023-05-27T01:45:40;101512.63;;;15.84;100.00
51460;BME280;37534;39.772;2.718;2023-05-27T01:48:07;101499.81;;;15.80;100.00
51460;BME280;37534;39.772;2.718;2023-05-27T01:50:37;101503.31;;;15.78;100.00
51460;BME280;37534;39.772;2.718;2023-05-27T01:53:03;101507.66;;;15.78;100.00
51460;BME280;37534;39.772;2.718;2023-05-27T01:55:29;101501.63;;;15.77;100.00
51460;BME280;37534;39.772;2.718;2023-05-27T01:57:56;101496.34;;;15.79;100.00
51460;BME280;37534;39.772;2.718;2023-05-27T02:00:22;101491.38;;;15.71;100.00
51460;BME280;37534;39.772;2.718;2023-05-27T02:02:47;101475.31;;;15.60;100.00
51460;BME280;37534;39.772;2.718;2023-05-27T02:05:13;101489.66;;;15.70;100.00
51460;BME280;37534;39.772;2.718;2023-05-27T02:07:38;101489.41;;;15.80;100.00
51460;BME280;37534;39.772;2.718;2023-05-27T02:10:04;101481.94;;;15.69;100.00
51460;BME280;37534;39.772;2.718;2023-05-27T02:12:30;101471.69;;;15.64;100.00
51460;BME280;37534;39.772;2.718;2023-05-27T02:14:56;101477.50;;;15.72;100.00
51460;BME280;37534;39.772;2.718;2023-05-27T02:17:21;101481.56;;;15.81;100.00
51460;BME280;37534;39.772;2.718;2023-05-27T02:19:49;101484.06;;;15.83;100.00
51460;BME280;37534;39.772;2.718;2023-05-27T02:22:15;101486.97;;;15.73;100.00
51460;BME280;37534;39.772;2.718;2023-05-27T02:24:40;101479.81;;;15.55;100.00
51460;BME280;37534;39.772;2.718;2023-05-27T02:27:06;101487.44;;;15.59;100.00
51460;BME280;37534;39.772;2.718;2023-05-27T02:29:32;101492.03;;;15.53;100.00
51460;BME280;37534;39.772;2.718;2023-05-27T02:31:58;101497.44;;;15.47;100.00
51460;BME280;37534;39.772;2.718;2023-05-27T02:34:23;101494.03;;;15.45;100.00
51460;BME280;37534;39.772;2.718;2023-05-27T02:36:49;101485.22;;;15.49;100.00
51460;BME280;37534;39.772;2.718;2023-05-27T02:39:14;101490.66;;;15.68;100.00
51460;BME280;37534;39.772;2.718;2023-05-27T02:41:40;101479.50;;;15.64;100.00
51460;BME280;37534;39.772;2.718;2023-05-27T02:44:05;101492.66;;;15.59;100.00
51460;BME280;37534;39.772;2.718;2023-05-27T02:46:31;101490.53;;;15.46;100.00
51460;BME280;37534;39.772;2.718;2023-05-27T02:48:56;101484.69;;;15.39;100.00
51460;BME280;37534;39.772;2.718;2023-05-27T02:51:22;101480.06;;;15.47;100.00
51460;BME280;37534;39.772;2.718;2023-05-27T02:53:49;101470.69;;;15.43;100.00
51460;BME280;37534;39.772;2.718;2023-05-27T02:56:14;101478.34;;;15.48;100.00
51460;BME280;37534;39.772;2.718;2023-05-27T02:58:40;101489.25;;;15.32;100.00
51460;BME280;37534;39.772;2.718;2023-05-27T03:01:05;101475.53;;;15.27;100.00
51460;BME280;37534;39.772;2.718;2023-05-27T03:03:31;101475.72;;;15.23;100.00
51460;BME280;37534;39.772;2.718;2023-05-27T03:05:56;101468.06;;;15.18;100.00
51460;BME280;37534;39.772;2.718;2023-05-27T03:08:22;101473.25;;;15.18;100.00
51460;BME280;37534;39.772;2.718;2023-05-27T03:10:47;101469.16;;;15.11;100.00
51460;BME280;37534;39.772;2.718;2023-05-27T03:13:13;101467.34;;;15.13;100.00
51460;BME280;37534;39.772;2.718;2023-05-27T03:15:39;101468.94;;;15.17;100.00
51460;BME280;37534;39.772;2.718;2023-05-27T03:18:05;101459.31;;;15.20;100.00
51460;BME280;37534;39.772;2.718;2023-05-27T03:20:30;101446.47;;;15.16;100.00
51460;BME280;37534;39.772;2.718;2023-05-27T03:22:56;101461.06;;;15.20;100.00
51460;BME280;37534;39.772;2.718;2023-05-27T03:25:23;101467.06;;;15.22;100.00
51460;BME280;37534;39.772;2.718;2023-05-27T03:27:49;101447.25;;;15.18;100.00
51460;BME280;37534;39.772;2.718;2023-05-27T03:30:14;101463.88;;;15.14;100.00
51460;BME280;37534;39.772;2.718;2023-05-27T03:32:40;101466.53;;;15.12;100.00
51460;BME280;37534;39.772;2.718;2023-05-27T03:35:06;101444.53;;;14.96;100.00
51460;BME280;37534;39.772;2.718;2023-05-27T03:37:31;101461.97;;;14.92;100.00
51460;BME280;37534;39.772;2.718;2023-05-27T03:39:57;101464.72;;;14.88;100.00
51460;BME280;37534;39.772;2.718;2023-05-27T03:42:23;101462.13;;;14.88;100.00
51460;BME280;37534;39.772;2.718;2023-05-27T03:44:48;101446.66;;;14.83;100.00
51460;BME280;37534;39.772;2.718;2023-05-27T03:47:14;101456.97;;;14.86;100.00
51460;BME280;37534;39.772;2.718;2023-05-27T03:49:42;101459.47;;;14.89;100.00
51460;BME280;37534;39.772;2.718;2023-05-27T03:52:08;101451.06;;;14.81;100.00
51460;BME280;37534;39.772;2.718;2023-05-27T03:54:34;101446.06;;;14.75;100.00
51460;BME280;37534;39.772;2.718;2023-05-27T03:56:59;101453.66;;;14.81;100.00
51460;BME280;37534;39.772;2.718;2023-05-27T03:59:25;101452.03;;;14.78;100.00
51460;BME280;37534;39.772;2.718;2023-05-27T04:01:50;101444.38;;;14.74;100.00
51460;BME280;37534;39.772;2.718;2023-05-27T04:04:16;101450.47;;;14.73;100.00
51460;BME280;37534;39.772;2.718;2023-05-27T04:06:41;101432.56;;;14.63;100.00
51460;BME280;37534;39.772;2.718;2023-05-27T04:09:07;101449.72;;;14.69;100.00
51460;BME280;37534;39.772;2.718;2023-05-27T04:11:33;101451.44;;;14.69;100.00
51460;BME280;37534;39.772;2.718;2023-05-27T04:13:58;101441.50;;;14.81;100.00
51460;BME280;37534;39.772;2.718;2023-05-27T04:16:24;101434.19;;;14.68;100.00
51460;BME280;37534;39.772;2.718;2023-05-27T04:18:51;101444.81;;;14.87;100.00
51460;BME280;37534;39.772;2.718;2023-05-27T04:21:19;101448.06;;;14.93;100.00
51460;BME280;37534;39.772;2.718;2023-05-27T04:23:45;101444.06;;;14.83;100.00
51460;BME280;37534;39.772;2.718;2023-05-27T04:26:11;101443.97;;;14.86;100.00
51460;BME280;37534;39.772;2.718;2023-05-27T04:28:37;101442.25;;;14.85;100.00
51460;BME280;37534;39.772;2.718;2023-05-27T04:31:04;101441.50;;;14.81;100.00
51460;BME280;37534;39.772;2.718;2023-05-27T04:33:30;101442.56;;;14.76;100.00
51460;BME280;37534;39.772;2.718;2023-05-27T04:35:56;101436.16;;;14.59;100.00
51460;BME280;37534;39.772;2.718;2023-05-27T04:38:22;101437.88;;;14.60;100.00
51460;BME280;37534;39.772;2.718;2023-05-27T04:40:53;101440.97;;;14.72;100.00
51460;BME280;37534;39.772;2.718;2023-05-27T04:43:20;101429.22;;;14.60;100.00
51460;BME280;37534;39.772;2.718;2023-05-27T04:45:46;101436.16;;;14.59;100.00
51460;BME280;37534;39.772;2.718;2023-05-27T04:48:13;101430.97;;;14.59;100.00
51460;BME280;37534;39.772;2.718;2023-05-27T04:50:39;101442.94;;;14.63;100.00
51460;BME280;37534;39.772;2.718;2023-05-27T04:53:06;101439.50;;;14.63;100.00
51460;BME280;37534;39.772;2.718;2023-05-27T04:55:32;101430.59;;;14.72;100.00
51460;BME280;37534;39.772;2.718;2023-05-27T04:57:58;101445.22;;;14.74;100.00
51460;BME280;37534;39.772;2.718;2023-05-27T05:00:24;101448.66;;;14.75;100.00
51460;BME280;37534;39.772;2.718;2023-05-27T05:03:02;101448.13;;;14.92;100.00
51460;BME280;37534;39.772;2.718;2023-05-27T05:05:29;101443.13;;;14.86;100.00
51460;BME280;37534;39.772;2.718;2023-05-27T05:07:54;101447.59;;;14.82;100.00
51460;BME280;37534;39.772;2.718;2023-05-27T05:10:20;101449.25;;;14.83;100.00
51460;BME280;37534;39.772;2.718;2023-05-27T05:12:46;101453.19;;;14.96;100.00
51460;BME280;37534;39.772;2.718;2023-05-27T05:15:12;101458.31;;;14.98;100.00
51460;BME280;37534;39.772;2.718;2023-05-27T05:17:37;101462.97;;;15.15;100.00
51460;BME280;37534;39.772;2.718;2023-05-27T05:20:03;101464.06;;;15.08;100.00
51460;BME280;37534;39.772;2.718;2023-05-27T05:22:30;101467.28;;;15.16;100.00
51460;BME280;37534;39.772;2.718;2023-05-27T05:24:55;101461.09;;;15.18;100.00
51460;BME280;37534;39.772;2.718;2023-05-27T05:27:21;101463.25;;;15.32;100.00
51460;BME280;37534;39.772;2.718;2023-05-27T05:29:46;101454.66;;;15.30;100.00
51460;BME280;37534;39.772;2.718;2023-05-27T05:32:12;101466.63;;;15.34;100.00
51460;BME280;37534;39.772;2.718;2023-05-27T05:34:38;101460.09;;;15.49;100.00
51460;BME280;37534;39.772;2.718;2023-05-27T05:37:04;101468.06;;;15.68;100.00
51460;BME280;37534;39.772;2.718;2023-05-27T05:39:30;101459.19;;;15.74;100.00
51460;BME280;37534;39.772;2.718;2023-05-27T05:41:56;101447.88;;;15.76;100.00
51460;BME280;37534;39.772;2.718;2023-05-27T05:44:23;101457.59;;;15.95;100.00
51460;BME280;37534;39.772;2.718;2023-05-27T05:46:49;101440.81;;;16.04;100.00
51460;BME280;37534;39.772;2.718;2023-05-27T05:49:14;101437.81;;;16.14;100.00
51460;BME280;37534;39.772;2.718;2023-05-27T05:51:40;101441.75;;;16.25;100.00
51460;BME280;37534;39.772;2.718;2023-05-27T05:54:06;101444.16;;;16.31;100.00
51460;BME280;37534;39.772;2.718;2023-05-27T05:56:32;101440.31;;;16.40;100.00
51460;BME280;37534;39.772;2.718;2023-05-27T05:58:58;101436.69;;;16.44;100.00
51460;BME280;37534;39.772;2.718;2023-05-27T06:01:25;101451.59;;;16.62;100.00
51460;BME280;37534;39.772;2.718;2023-05-27T06:03:52;101448.44;;;16.76;100.00
51460;BME280;37534;39.772;2.718;2023-05-27T06:06:18;101441.72;;;16.92;100.00
51460;BME280;37534;39.772;2.718;2023-05-27T06:08:44;101442.06;;;17.05;100.00
51460;BME280;37534;39.772;2.718;2023-05-27T06:11:10;101443.06;;;17.23;100.00
51460;BME280;37534;39.772;2.718;2023-05-27T06:13:36;101438.06;;;17.39;100.00
51460;BME280;37534;39.772;2.718;2023-05-27T06:16:02;101452.84;;;17.59;100.00
51460;BME280;37534;39.772;2.718;2023-05-27T06:18:27;101460.91;;;17.74;100.00
51460;BME280;37534;39.772;2.718;2023-05-27T06:20:53;101461.94;;;17.90;100.00
51460;BME280;37534;39.772;2.718;2023-05-27T06:23:19;101462.81;;;18.10;100.00
51460;BME280;37534;39.772;2.718;2023-05-27T06:25:44;101453.50;;;18.23;100.00
51460;BME280;37534;39.772;2.718;2023-05-27T06:28:10;101468.16;;;18.45;100.00
51460;BME280;37534;39.772;2.718;2023-05-27T06:30:36;101463.91;;;18.61;100.00
51460;BME280;37534;39.772;2.718;2023-05-27T06:33:02;101458.41;;;18.67;100.00
51460;BME280;37534;39.772;2.718;2023-05-27T06:35:28;101462.63;;;18.70;100.00
51460;BME280;37534;39.772;2.718;2023-05-27T06:37:53;101463.19;;;18.76;100.00
51460;BME280;37534;39.772;2.718;2023-05-27T06:40:19;101467.47;;;18.96;100.00
51460;BME280;37534;39.772;2.718;2023-05-27T06:42:44;101468.31;;;19.14;100.00
51460;BME280;37534;39.772;2.718;2023-05-27T06:45:10;101466.00;;;19.26;100.00
51460;BME280;37534;39.772;2.718;2023-05-27T06:47:36;101458.69;;;19.32;100.00
51460;BME280;37534;39.772;2.718;2023-05-27T06:50:01;101462.13;;;19.50;100.00
51460;BME280;37534;39.772;2.718;2023-05-27T06:52:27;101467.91;;;19.74;100.00
51460;BME280;37534;39.772;2.718;2023-05-27T06:54:52;101450.72;;;19.86;100.00
51460;BME280;37534;39.772;2.718;2023-05-27T06:57:18;101459.59;;;20.16;100.00
51460;BME280;37534;39.772;2.718;2023-05-27T06:59:44;101465.28;;;20.40;100.00
51460;BME280;37534;39.772;2.718;2023-05-27T07:02:09;101455.69;;;20.55;100.00
51460;BME280;37534;39.772;2.718;2023-05-27T07:04:35;101458.50;;;20.67;100.00
51460;BME280;37534;39.772;2.718;2023-05-27T07:07:02;101462.50;;;20.89;100.00
51460;BME280;37534;39.772;2.718;2023-05-27T07:09:28;101460.81;;;21.04;100.00
51460;BME280;37534;39.772;2.718;2023-05-27T07:11:53;101456.50;;;21.17;94.80
51460;BME280;37534;39.772;2.718;2023-05-27T07:14:19;101446.50;;;21.24;90.42
51460;BME280;37534;39.772;2.718;2023-05-27T07:16:44;101460.72;;;21.50;92.13
51460;BME280;37534;39.772;2.718;2023-05-27T07:19:10;101458.59;;;21.71;92.86
51460;BME280;37534;39.772;2.718;2023-05-27T07:21:36;101460.63;;;21.95;92.29
51460;BME280;37534;39.772;2.718;2023-05-27T07:24:02;101443.72;;;22.13;91.09
51460;BME280;37534;39.772;2.718;2023-05-27T07:26:32;101450.06;;;22.38;88.48
51460;BME280;37534;39.772;2.718;2023-05-27T07:28:59;101443.81;;;22.53;88.73
51460;BME280;37534;39.772;2.718;2023-05-27T07:31:26;101440.09;;;22.70;88.67
51460;BME280;37534;39.772;2.718;2023-05-27T07:33:51;101440.03;;;22.85;86.65
51460;BME280;37534;39.772;2.718;2023-05-27T07:36:17;101445.88;;;23.03;82.64
51460;BME280;37534;39.772;2.718;2023-05-27T07:38:42;101449.50;;;23.27;82.14
51460;BME280;37534;39.772;2.718;2023-05-27T07:41:09;101457.31;;;23.42;80.68
51460;BME280;37534;39.772;2.718;2023-05-27T07:43:35;101439.16;;;23.37;78.00
51460;BME280;37534;39.772;2.718;2023-05-27T07:46:00;101438.75;;;23.56;79.29
51460;BME280;37534;39.772;2.718;2023-05-27T07:48:27;101432.84;;;23.65;77.03
51460;BME280;37534;39.772;2.718;2023-05-27T07:50:53;101436.94;;;23.82;76.68
51460;BME280;37534;39.772;2.718;2023-05-27T07:53:19;101427.78;;;23.88;75.97
51460;BME280;37534;39.772;2.718;2023-05-27T07:55:45;101432.97;;;24.14;74.89
51460;BME280;37534;39.772;2.718;2023-05-27T07:58:10;101435.66;;;24.25;73.42
51460;BME280;37534;39.772;2.718;2023-05-27T08:00:36;101427.63;;;24.39;70.39
51460;BME280;37534;39.772;2.718;2023-05-27T08:03:01;101420.78;;;24.48;68.78
51460;BME280;37534;39.772;2.718;2023-05-27T08:05:27;101415.00;;;24.56;65.97
51460;BME280;37534;39.772;2.718;2023-05-27T08:07:52;101426.56;;;24.66;63.81
51460;BME280;37534;39.772;2.718;2023-05-27T08:10:18;101423.69;;;24.69;65.41
51460;BME280;37534;39.772;2.718;2023-05-27T08:12:43;101435.72;;;24.84;67.90
51460;BME280;37534;39.772;2.718;2023-05-27T08:15:09;101437.53;;;24.84;69.70
51460;BME280;37534;39.772;2.718;2023-05-27T08:17:35;101434.41;;;24.79;69.90
51460;BME280;37534;39.772;2.718;2023-05-27T08:20:00;101432.59;;;24.79;70.88
51460;BME280;37534;39.772;2.718;2023-05-27T08:22:26;101428.50;;;24.75;72.48
51460;BME280;37534;39.772;2.718;2023-05-27T08:24:51;101428.28;;;24.78;72.46
51460;BME280;37534;39.772;2.718;2023-05-27T08:27:17;101433.69;;;24.88;71.05
51460;BME280;37534;39.772;2.718;2023-05-27T08:29:43;101443.13;;;25.03;68.81
51460;BME280;37534;39.772;2.718;2023-05-27T08:32:09;101451.66;;;25.18;70.16
51460;BME280;37534;39.772;2.718;2023-05-27T08:34:35;101439.66;;;25.14;69.83
51460;BME280;37534;39.772;2.718;2023-05-27T08:37:01;101451.94;;;25.27;69.17
51460;BME280;37534;39.772;2.718;2023-05-27T08:39:28;101447.88;;;25.45;69.39
51460;BME280;37534;39.772;2.718;2023-05-27T08:41:54;101454.63;;;25.72;68.20
51460;BME280;37534;39.772;2.718;2023-05-27T08:44:23;101449.56;;;25.91;65.61
51460;BME280;37534;39.772;2.718;2023-05-27T08:46:49;101449.16;;;26.18;64.50
51460;BME280;37534;39.772;2.718;2023-05-27T08:49:16;101448.91;;;26.33;63.11
51460;BME280;37534;39.772;2.718;2023-05-27T08:51:44;101456.47;;;26.37;60.67
51460;BME280;37534;39.772;2.718;2023-05-27T08:54:10;101444.66;;;26.42;62.23
51460;BME280;37534;39.772;2.718;2023-05-27T08:56:37;101459.88;;;26.61;61.39
51460;BME280;37534;39.772;2.718;2023-05-27T08:59:04;101441.72;;;26.67;62.89
51460;BME280;37534;39.772;2.718;2023-05-27T09:01:30;101447.00;;;26.67;61.88
51460;BME280;37534;39.772;2.718;2023-05-27T09:03:58;101438.81;;;26.59;60.58
51460;BME280;37534;39.772;2.718;2023-05-27T09:06:24;101425.13;;;26.54;60.98
51460;BME280;37534;39.772;2.718;2023-05-27T09:08:50;101428.59;;;26.66;59.37
51460;BME280;37534;39.772;2.718;2023-05-27T09:11:28;101432.53;;;26.71;59.48
51460;BME280;37534;39.772;2.718;2023-05-27T09:13:56;101449.34;;;26.49;60.83
51460;BME280;37534;39.772;2.718;2023-05-27T09:16:22;101441.72;;;26.67;58.77
51460;BME280;37534;39.772;2.718;2023-05-27T09:18:48;101436.44;;;26.67;58.02
51460;BME280;37534;39.772;2.718;2023-05-27T09:21:14;101445.44;;;26.65;58.27
51460;BME280;37534;39.772;2.718;2023-05-27T09:23:39;101437.59;;;26.74;58.68
51460;BME280;37534;39.772;2.718;2023-05-27T09:26:09;101447.63;;;26.92;58.43
51460;BME280;37534;39.772;2.718;2023-05-27T09:28:38;101433.97;;;26.97;58.73
51460;BME280;37534;39.772;2.718;2023-05-27T09:31:05;101449.50;;;27.01;59.76
51460;BME280;37534;39.772;2.718;2023-05-27T09:33:35;101445.75;;;26.83;61.46
51460;BME280;37534;39.772;2.718;2023-05-27T09:36:03;101439.81;;;26.90;61.82
51460;BME280;37534;39.772;2.718;2023-05-27T09:38:33;101446.34;;;26.86;63.37
51460;BME280;37534;39.772;2.718;2023-05-27T09:40:59;101447.41;;;26.84;62.79
51460;BME280;37534;39.772;2.718;2023-05-27T09:43:25;101449.34;;;26.82;61.11
51460;BME280;37534;39.772;2.718;2023-05-27T09:45:52;101452.94;;;26.81;59.81
51460;BME280;37534;39.772;2.718;2023-05-27T09:48:21;101454.78;;;27.01;58.70
51460;BME280;37534;39.772;2.718;2023-05-27T09:50:49;101455.94;;;27.08;57.65
51460;BME280;37534;39.772;2.718;2023-05-27T09:53:16;101454.16;;;27.30;56.94
51460;BME280;37534;39.772;2.718;2023-05-27T09:55:42;101461.88;;;27.43;56.72
51460;BME280;37534;39.772;2.718;2023-05-27T09:58:08;101463.22;;;27.58;56.06
51460;BME280;37534;39.772;2.718;2023-05-27T10:00:36;101454.91;;;27.73;54.87
51460;BME280;37534;39.772;2.718;2023-05-27T10:03:01;101467.69;;;27.58;53.93
51460;BME280;37534;39.772;2.718;2023-05-27T10:05:31;101457.59;;;27.52;53.59
51460;BME280;37534;39.772;2.718;2023-05-27T10:07:57;101466.19;;;27.65;53.83
51460;BME280;37534;39.772;2.718;2023-05-27T10:10:23;101474.97;;;27.65;54.00
51460;BME280;37534;39.772;2.718;2023-05-27T10:12:50;101483.63;;;27.67;54.38
51460;BME280;37534;39.772;2.718;2023-05-27T10:15:29;101483.22;;;27.72;53.38
51460;BME280;37534;39.772;2.718;2023-05-27T10:18:03;101475.94;;;27.64;53.03
51460;BME280;37534;39.772;2.718;2023-05-27T10:20:33;101487.78;;;27.60;51.10
51460;BME280;37534;39.772;2.718;2023-05-27T10:25:39;101477.28;;;27.90;50.54
51460;BME280;37534;39.772;2.718;2023-05-27T10:28:06;101456.22;;;27.88;48.89
51460;BME280;37534;39.772;2.718;2023-05-27T10:30:45;101476.84;;;27.84;47.38
51460;BME280;37534;39.772;2.718;2023-05-27T10:33:11;101475.53;;;27.69;48.78
51460;BME280;37534;39.772;2.718;2023-05-27T10:35:41;101472.19;;;27.67;49.26
51460;BME280;37534;39.772;2.718;2023-05-27T10:38:16;101467.69;;;27.58;49.14
51460;BME280;37534;39.772;2.718;2023-05-27T10:40:43;101479.22;;;27.47;49.62
51460;BME280;37534;39.772;2.718;2023-05-27T10:43:17;101475.66;;;27.37;49.92
51460;BME280;37534;39.772;2.718;2023-05-27T10:45:44;101472.69;;;27.30;50.72
51460;BME280;37534;39.772;2.718;2023-05-27T10:48:20;101465.91;;;27.37;50.43
51460;BME280;37534;39.772;2.718;2023-05-27T10:50:52;101480.53;;;27.62;47.46
51460;BME280;37534;39.772;2.718;2023-05-27T10:53:19;101476.28;;;27.81;49.03
51460;BME280;37534;39.772;2.718;2023-05-27T10:55:49;101467.16;;;27.95;48.37
51460;BME280;37534;39.772;2.718;2023-05-27T10:58:18;101478.81;;;28.33;48.70
51460;BME280;37534;39.772;2.718;2023-05-27T11:00:45;101467.66;;;28.49;46.46
51460;BME280;37534;39.772;2.718;2023-05-27T11:03:20;101460.66;;;28.48;47.26
51460;BME280;37534;39.772;2.718;2023-05-27T11:06:01;101474.38;;;28.53;46.60
51460;BME280;37534;39.772;2.718;2023-05-27T11:08:28;101480.09;;;28.48;47.40
51460;BME280;37534;39.772;2.718;2023-05-27T11:11:02;101475.09;;;28.65;47.92
51460;BME280;37534;39.772;2.718;2023-05-27T11:15:57;101474.41;;;28.62;51.46
51460;BME280;37534;39.772;2.718;2023-05-27T11:18:22;101459.88;;;28.76;50.27
51460;BME280;37534;39.772;2.718;2023-05-27T11:20:48;101459.72;;;28.78;49.29
51460;BME280;37534;39.772;2.718;2023-05-27T11:23:13;101464.47;;;28.84;49.37
51460;BME280;37534;39.772;2.718;2023-05-27T11:25:43;101460.03;;;28.75;47.16
51460;BME280;37534;39.772;2.718;2023-05-27T11:28:16;101457.59;;;28.33;48.71
51460;BME280;37534;39.772;2.718;2023-05-27T11:30:44;101454.75;;;28.05;48.99
51460;BME280;37534;39.772;2.718;2023-05-27T11:33:10;101455.44;;;27.97;51.13
51460;BME280;37534;39.772;2.718;2023-05-27T11:35:36;101461.34;;;27.80;53.13
51460;BME280;37534;39.772;2.718;2023-05-27T11:38:01;101467.22;;;27.83;54.81
51460;BME280;37534;39.772;2.718;2023-05-27T11:40:35;101450.28;;;27.65;55.19
51460;BME280;37534;39.772;2.718;2023-05-27T11:43:01;101455.03;;;27.71;55.34
51460;BME280;37534;39.772;2.718;2023-05-27T11:45:27;101451.16;;;27.75;55.03
51460;BME280;37534;39.772;2.718;2023-05-27T11:47:52;101445.63;;;27.57;53.98
51460;BME280;37534;39.772;2.718;2023-05-27T11:50:24;101433.97;;;27.39;56.10
51460;BME280;37534;39.772;2.718;2023-05-27T11:52:58;101430.50;;;27.38;55.29
51460;BME280;37534;39.772;2.718;2023-05-27T11:55:30;101437.00;;;27.34;56.94
51460;BME280;37534;39.772;2.718;2023-05-27T11:57:55;101446.41;;;27.48;55.81
51460;BME280;37534;39.772;2.718;2023-05-27T12:00:21;101424.31;;;27.28;54.59
51460;BME280;37534;39.772;2.718;2023-05-27T12:02:46;101431.19;;;27.40;53.47
51460;BME280;37534;39.772;2.718;2023-05-27T12:05:12;101425.78;;;27.52;53.78
51460;BME280;37534;39.772;2.718;2023-05-27T12:07:37;101429.50;;;27.70;53.35
51460;BME280;37534;39.772;2.718;2023-05-27T12:10:08;101422.94;;;27.74;52.77
51460;BME280;37534;39.772;2.718;2023-05-27T12:12:34;101418.78;;;27.81;47.63
51460;BME280;37534;39.772;2.718;2023-05-27T12:15:00;101426.38;;;27.96;47.26
51460;BME280;37534;39.772;2.718;2023-05-27T12:17:26;101418.47;;;28.15;46.86
51460;BME280;37534;39.772;2.718;2023-05-27T12:19:52;101415.41;;;28.30;48.69
51460;BME280;37534;39.772;2.718;2023-05-27T12:22:17;101414.56;;;28.10;51.57
51460;BME280;37534;39.772;2.718;2023-05-27T12:24:43;101397.50;;;28.12;52.03
51460;BME280;37534;39.772;2.718;2023-05-27T12:27:08;101401.44;;;28.28;52.89
51460;BME280;37534;39.772;2.718;2023-05-27T12:29:34;101405.91;;;28.37;50.20
51460;BME280;37534;39.772;2.718;2023-05-27T12:32:00;101389.56;;;28.41;53.29
51460;BME280;37534;39.772;2.718;2023-05-27T12:34:25;101390.28;;;28.53;52.55
51460;BME280;37534;39.772;2.718;2023-05-27T12:36:51;101382.69;;;28.00;54.52
51460;BME280;37534;39.772;2.718;2023-05-27T12:39:16;101380.75;;;27.92;56.94
51460;BME280;37534;39.772;2.718;2023-05-27T12:41:42;101368.75;;;28.08;55.16
51460;BME280;37534;39.772;2.718;2023-05-27T12:44:08;101372.41;;;28.16;54.93
51460;BME280;37534;39.772;2.718;2023-05-27T12:46:33;101370.16;;;28.31;53.96
51460;BME280;37534;39.772;2.718;2023-05-27T12:48:59;101368.50;;;28.40;53.65